Rhapsody Of The Seas — C6UA2 — position and weather

sailwx.info

Track history (hours):
 
Tides and Currents Weather Stations Pressure Air Temp Water Temp Dewpoint Dewpoint Depression Visibility Wind Speed Wind Dir Waves Ship Positions

Rhapsody Of The Seas

Last reported at 2019-Aug-21 15:00 UTC. Time now 2019-Aug-22 08:51 UTC.
Position N 37°12' E 024°49'.

Type: Passenger vessel. MMSI: 311805000.

Date/timePositionNaut miles runAvg speedWind from/ knotsBaromVisibWave heightAir tempDewpointWater temp
2019-Aug-21 15:00N 37°12' E 024°49'917.8
2019-Aug-21 14:30N 37°17' E 024°58'816.7
2019-Aug-21 14:00N 37°23' E 025°06'816.4
2019-Aug-21 13:31N 37°27' E 025°15'4 4.4
2019-Aug-21 12:40N 37°27' E 025°19'0 0.2
2019-Aug-21 12:28N 37°27' E 025°19'0 0.0
2019-Aug-21 11:55N 37°27' E 025°19'0 0.0
2019-Aug-21 11:28N 37°27' E 025°19'0 0.0
2019-Aug-21 10:55N 37°27' E 025°19'0 0.0
2019-Aug-21 10:28N 37°27' E 025°19'0 0.0
2019-Aug-21 09:49N 37°27' E 025°19'0 0.0
2019-Aug-21 09:28N 37°27' E 025°19'0 0.0
2019-Aug-21 08:58N 37°27' E 025°19'0 0.0
2019-Aug-21 08:28N 37°27' E 025°19'0 0.0
2019-Aug-21 07:58N 37°27' E 025°19'0 0.0
2019-Aug-21 07:25N 37°27' E 025°19'0 0.0
2019-Aug-21 06:55N 37°27' E 025°19'0 0.0
2019-Aug-21 06:28N 37°27' E 025°19'0 0.0
2019-Aug-21 05:55N 37°27' E 025°19'0 0.0
2019-Aug-21 05:28N 37°27' E 025°19'0 0.0
2019-Aug-21 04:58N 37°27' E 025°19'0 0.0
2019-Aug-21 04:30N 37°27' E 025°19'0 0.0
2019-Aug-21 04:00N 37°27' E 025°19'1 2.4
2019-Aug-21 03:30N 37°27' E 025°18'4 8.1
2019-Aug-21 03:00N 37°29' E 025°13'4 8.7
2019-Aug-21 02:30N 37°30' E 025°08'5 9.4
2019-Aug-21 02:00N 37°31' E 025°02'5 9.6
2019-Aug-21 01:30N 37°32' E 024°56'5 9.1
2019-Aug-21 01:00N 37°33' E 024°50'50 9.7
2019-Aug-20 19:51N 37°38' E 023°48'410.5
2019-Aug-20 19:30N 37°39' E 023°44'510.2
2019-Aug-20 19:00N 37°43' E 023°40'510.6
2019-Aug-20 18:30N 37°48' E 023°38'510.3
2019-Aug-20 18:00N 37°53' E 023°37'3 6.7
2019-Aug-20 17:30N 37°56' E 023°38'0 0.2
2019-Aug-20 16:58N 37°56' E 023°38'0 0.0
2019-Aug-20 16:28N 37°56' E 023°38'0 0.0
2019-Aug-20 15:58N 37°56' E 023°38'0 0.0
2019-Aug-20 15:25N 37°56' E 023°38'0 0.0
2019-Aug-20 14:58N 37°56' E 023°38'0 0.0
2019-Aug-20 14:28N 37°56' E 023°38'0 0.0
2019-Aug-20 13:58N 37°56' E 023°38'0 0.0
2019-Aug-20 13:28N 37°56' E 023°38'0 0.0
2019-Aug-20 12:58N 37°56' E 023°38'0 0.0
2019-Aug-20 12:28N 37°56' E 023°38'0 0.0
2019-Aug-20 11:58N 37°56' E 023°38'0 0.0
2019-Aug-20 11:28N 37°56' E 023°38'0 0.0
2019-Aug-20 10:58N 37°56' E 023°38'0 0.0
2019-Aug-20 10:28N 37°56' E 023°38'0 0.0
2019-Aug-20 09:58N 37°56' E 023°38'0 0.0
2019-Aug-20 09:28N 37°56' E 023°38'0 0.0
2019-Aug-20 09:00N 37°56' E 023°38'0 0.3
2019-Aug-20 08:31N 37°56' E 023°38'2 4.5
2019-Aug-20 08:00N 37°55' E 023°36'918.7
2019-Aug-20 07:31N 37°46' E 023°41'918.8
2019-Aug-20 07:00N 37°37' E 023°45'1019.4
2019-Aug-20 06:31N 37°28' E 023°44'  
2019-Aug-17 22:02N 44°20' E 013°49'121.8
2019-Aug-17 22:00N 44°21' E 013°49'1121.8
2019-Aug-17 21:31N 44°30' E 013°40'1121.6
2019-Aug-17 21:01N 44°39' E 013°32'1121.5
2019-Aug-17 20:31N 44°47' E 013°23'1121.2
2019-Aug-17 20:00N 44°56' E 013°14'1020.9
2019-Aug-17 19:31N 45°03' E 013°04'1020.9
2019-Aug-17 19:01N 45°10' E 012°53'1020.9
2019-Aug-17 18:31N 45°17' E 012°41'1514.9
2019-Aug-17 17:30N 45°26' E 012°24'2 4.6
2019-Aug-17 17:00N 45°26' E 012°21'2 3.8
2019-Aug-17 16:30N 45°26' E 012°18'0 0.5
2019-Aug-17 16:00N 45°26' E 012°19'0 0.0
2019-Aug-17 15:30N 45°26' E 012°19'0 0.0
2019-Aug-17 15:00N 45°26' E 012°19'0 0.0
2019-Aug-17 14:30N 45°26' E 012°19'0 0.0
2019-Aug-17 14:00N 45°26' E 012°19'0 0.0
2019-Aug-17 13:30N 45°26' E 012°19'0 0.0
2019-Aug-17 13:00N 45°26' E 012°19'0 0.0
2019-Aug-17 12:30N 45°26' E 012°19'0 0.0
2019-Aug-17 12:00N 45°26' E 012°19'0 0.0
2019-Aug-17 11:30N 45°26' E 012°19'0 0.0
2019-Aug-17 11:00N 45°26' E 012°19'0 0.0
2019-Aug-17 10:30N 45°26' E 012°19'0 0.0
2019-Aug-17 10:00N 45°26' E 012°19'0 0.0
2019-Aug-17 09:30N 45°26' E 012°19'0 0.0
2019-Aug-17 09:00N 45°26' E 012°19'0 0.0
2019-Aug-17 08:30N 45°26' E 012°19'0 0.0
2019-Aug-17 08:00N 45°26' E 012°19'0 0.0
2019-Aug-17 07:30N 45°26' E 012°19'0 0.0
2019-Aug-17 07:00N 45°26' E 012°19'0 0.0
2019-Aug-17 06:30N 45°26' E 012°19'0 0.0
2019-Aug-17 06:00N 45°26' E 012°19'0 0.0
2019-Aug-17 05:30N 45°26' E 012°19'0 0.0
2019-Aug-17 05:00N 45°26' E 012°19'0 0.0
2019-Aug-17 04:30N 45°26' E 012°19'1 1.3
2019-Aug-17 04:01N 45°26' E 012°19'2 4.4
2019-Aug-17 03:30N 45°25' E 012°22'3 5.9
2019-Aug-17 03:00N 45°25' E 012°26'5 9.4
2019-Aug-17 02:30N 45°23' E 012°32'815.3
2019-Aug-17 02:01N 45°18' E 012°41'815.8
2019-Aug-17 01:31N 45°13' E 012°50'815.9
2019-Aug-17 01:00N 45°09' E 012°59'816.0
2019-Aug-17 00:31N 45°04' E 013°08'816.0
2019-Aug-17 00:01N 44°59' E 013°17'815.8
2019-Aug-16 23:31N 44°53' E 013°24'713.5
2019-Aug-16 23:00N 44°47' E 013°30'714.9
2019-Aug-16 22:30N 44°41' E 013°36'815.4
2019-Aug-16 21:59N 44°35' E 013°42'715.2
2019-Aug-16 21:30N 44°28' E 013°48'815.3
2019-Aug-16 21:00N 44°22' E 013°53'815.3
2019-Aug-16 20:29N 44°15' E 013°60'66513.1
2019-Aug-14 17:38N 36°19' E 024°07'216.1
2019-Aug-14 17:30N 36°19' E 024°10'330 8.1
2019-Aug-13 01:00N 40°06' E 019°06'   020 / 71011.9 5.4 26.020.2
Track history (hours):
 
Tides and Currents Weather Stations Pressure Air Temp Water Temp Dewpoint Dewpoint Depression Visibility Wind Speed Wind Dir Waves Ship Positions

Rhapsody Of The Seas

Last reported at 2019-Aug-21 15:00 UTC. Time now 2019-Aug-22 08:51 UTC.
Position N 37°12' E 024°49'.

Type: Passenger vessel. MMSI: 311805000.

Date/timePositionNaut miles runAvg speedWind from/ knotsBaromVisibWave heightAir tempDewpointWater temp
2019-Aug-21 15:00N 37°12' E 024°49'917.8
2019-Aug-21 14:30N 37°17' E 024°58'816.7
2019-Aug-21 14:00N 37°23' E 025°06'816.4
2019-Aug-21 13:31N 37°27' E 025°15'4 4.4
2019-Aug-21 12:40N 37°27' E 025°19'0 0.2
2019-Aug-21 12:28N 37°27' E 025°19'0 0.0
2019-Aug-21 11:55N 37°27' E 025°19'0 0.0
2019-Aug-21 11:28N 37°27' E 025°19'0 0.0
2019-Aug-21 10:55N 37°27' E 025°19'0 0.0
2019-Aug-21 10:28N 37°27' E 025°19'0 0.0
2019-Aug-21 09:49N 37°27' E 025°19'0 0.0
2019-Aug-21 09:28N 37°27' E 025°19'0 0.0
2019-Aug-21 08:58N 37°27' E 025°19'0 0.0
2019-Aug-21 08:28N 37°27' E 025°19'0 0.0
2019-Aug-21 07:58N 37°27' E 025°19'0 0.0
2019-Aug-21 07:25N 37°27' E 025°19'0 0.0
2019-Aug-21 06:55N 37°27' E 025°19'0 0.0
2019-Aug-21 06:28N 37°27' E 025°19'0 0.0
2019-Aug-21 05:55N 37°27' E 025°19'0 0.0
2019-Aug-21 05:28N 37°27' E 025°19'0 0.0
2019-Aug-21 04:58N 37°27' E 025°19'0 0.0
2019-Aug-21 04:30N 37°27' E 025°19'0 0.0
2019-Aug-21 04:00N 37°27' E 025°19'1 2.4
2019-Aug-21 03:30N 37°27' E 025°18'4 8.1
2019-Aug-21 03:00N 37°29' E 025°13'4 8.7
2019-Aug-21 02:30N 37°30' E 025°08'5 9.4
2019-Aug-21 02:00N 37°31' E 025°02'5 9.6
2019-Aug-21 01:30N 37°32' E 024°56'5 9.1
2019-Aug-21 01:00N 37°33' E 024°50'50 9.7
2019-Aug-20 19:51N 37°38' E 023°48'410.5
2019-Aug-20 19:30N 37°39' E 023°44'510.2
2019-Aug-20 19:00N 37°43' E 023°40'510.6
2019-Aug-20 18:30N 37°48' E 023°38'510.3
2019-Aug-20 18:00N 37°53' E 023°37'3 6.7
2019-Aug-20 17:30N 37°56' E 023°38'0 0.2
2019-Aug-20 16:58N 37°56' E 023°38'0 0.0
2019-Aug-20 16:28N 37°56' E 023°38'0 0.0
2019-Aug-20 15:58N 37°56' E 023°38'0 0.0
2019-Aug-20 15:25N 37°56' E 023°38'0 0.0
2019-Aug-20 14:58N 37°56' E 023°38'0 0.0
2019-Aug-20 14:28N 37°56' E 023°38'0 0.0
2019-Aug-20 13:58N 37°56' E 023°38'0 0.0
2019-Aug-20 13:28N 37°56' E 023°38'0 0.0
2019-Aug-20 12:58N 37°56' E 023°38'0 0.0
2019-Aug-20 12:28N 37°56' E 023°38'0 0.0
2019-Aug-20 11:58N 37°56' E 023°38'0 0.0
2019-Aug-20 11:28N 37°56' E 023°38'0 0.0
2019-Aug-20 10:58N 37°56' E 023°38'0 0.0
2019-Aug-20 10:28N 37°56' E 023°38'0 0.0
2019-Aug-20 09:58N 37°56' E 023°38'0 0.0
2019-Aug-20 09:28N 37°56' E 023°38'0 0.0
2019-Aug-20 09:00N 37°56' E 023°38'0 0.3
2019-Aug-20 08:31N 37°56' E 023°38'2 4.5
2019-Aug-20 08:00N 37°55' E 023°36'918.7
2019-Aug-20 07:31N 37°46' E 023°41'918.8
2019-Aug-20 07:00N 37°37' E 023°45'1019.4
2019-Aug-20 06:31N 37°28' E 023°44'  
2019-Aug-17 22:02N 44°20' E 013°49'121.8
2019-Aug-17 22:00N 44°21' E 013°49'1121.8
2019-Aug-17 21:31N 44°30' E 013°40'1121.6
2019-Aug-17 21:01N 44°39' E 013°32'1121.5
2019-Aug-17 20:31N 44°47' E 013°23'1121.2
2019-Aug-17 20:00N 44°56' E 013°14'1020.9
2019-Aug-17 19:31N 45°03' E 013°04'1020.9
2019-Aug-17 19:01N 45°10' E 012°53'1020.9
2019-Aug-17 18:31N 45°17' E 012°41'1514.9
2019-Aug-17 17:30N 45°26' E 012°24'2 4.6
2019-Aug-17 17:00N 45°26' E 012°21'2 3.8
2019-Aug-17 16:30N 45°26' E 012°18'0 0.5
2019-Aug-17 16:00N 45°26' E 012°19'0 0.0
2019-Aug-17 15:30N 45°26' E 012°19'0 0.0
2019-Aug-17 15:00N 45°26' E 012°19'0 0.0
2019-Aug-17 14:30N 45°26' E 012°19'0 0.0
2019-Aug-17 14:00N 45°26' E 012°19'0 0.0
2019-Aug-17 13:30N 45°26' E 012°19'0 0.0
2019-Aug-17 13:00N 45°26' E 012°19'0 0.0
2019-Aug-17 12:30N 45°26' E 012°19'0 0.0
2019-Aug-17 12:00N 45°26' E 012°19'0 0.0
2019-Aug-17 11:30N 45°26' E 012°19'0 0.0
2019-Aug-17 11:00N 45°26' E 012°19'0 0.0
2019-Aug-17 10:30N 45°26' E 012°19'0 0.0
2019-Aug-17 10:00N 45°26' E 012°19'0 0.0
2019-Aug-17 09:30N 45°26' E 012°19'0 0.0
2019-Aug-17 09:00N 45°26' E 012°19'0 0.0
2019-Aug-17 08:30N 45°26' E 012°19'0 0.0
2019-Aug-17 08:00N 45°26' E 012°19'0 0.0
2019-Aug-17 07:30N 45°26' E 012°19'0 0.0
2019-Aug-17 07:00N 45°26' E 012°19'0 0.0
2019-Aug-17 06:30N 45°26' E 012°19'0 0.0
2019-Aug-17 06:00N 45°26' E 012°19'0 0.0
2019-Aug-17 05:30N 45°26' E 012°19'0 0.0
2019-Aug-17 05:00N 45°26' E 012°19'0 0.0
2019-Aug-17 04:30N 45°26' E 012°19'1 1.3
2019-Aug-17 04:01N 45°26' E 012°19'2 4.4
2019-Aug-17 03:30N 45°25' E 012°22'3 5.9
2019-Aug-17 03:00N 45°25' E 012°26'5 9.4
2019-Aug-17 02:30N 45°23' E 012°32'815.3
2019-Aug-17 02:01N 45°18' E 012°41'815.8
2019-Aug-17 01:31N 45°13' E 012°50'815.9
2019-Aug-17 01:00N 45°09' E 012°59'816.0
2019-Aug-17 00:31N 45°04' E 013°08'816.0
2019-Aug-17 00:01N 44°59' E 013°17'815.8
2019-Aug-16 23:31N 44°53' E 013°24'713.5
2019-Aug-16 23:00N 44°47' E 013°30'714.9
2019-Aug-16 22:30N 44°41' E 013°36'815.4
2019-Aug-16 21:59N 44°35' E 013°42'715.2
2019-Aug-16 21:30N 44°28' E 013°48'815.3
2019-Aug-16 21:00N 44°22' E 013°53'815.3
2019-Aug-16 20:29N 44°15' E 013°60'66513.1
2019-Aug-14 17:38N 36°19' E 024°07'216.1
2019-Aug-14 17:30N 36°19' E 024°10'330 8.1
2019-Aug-13 01:00N 40°06' E 019°06'   020 / 71011.9 5.4 26.020.2

Dump ship's entire track history